Happy Days — WDB6140 — position and weather

sailwx.info

Track history (hours):
 
Tides and Currents Weather Stations Pressure Air Temp Water Temp Dewpoint Dewpoint Depression Visibility Wind Speed Wind Dir Waves Ship Positions

Happy Days

Owner: nazar, joe d, san francisco, CA. More information available from US FCC via Universal Licensing System and Coast Guard Vessel Documentation Center.

Last reported at 2017-Nov-19 22:43 UTC. Time now 2017-Nov-24 00:24 UTC.
Position N 37°49' W 122°25'.

Length 13 m.

Type: Fishing. MMSI: 366918840.

Date/timePositionNaut miles runAvg speedWind from/ knotsBaromVisibWave heightAir tempDewpointWater temp
2017-Nov-19 22:43N 37°49' W 122°25'0 0.0
2017-Nov-19 22:28N 37°49' W 122°25'2 4.5
2017-Nov-19 22:00N 37°49' W 122°27'2412.5
2017-Nov-19 20:04N 37°43' W 122°57'113.3
2017-Nov-19 20:00N 37°43' W 122°58'2 2.2
2017-Nov-19 19:13N 37°42' W 122°60'0 0.8
2017-Nov-19 18:57N 37°42' W 123°00'1910.5
2017-Nov-19 17:06N 37°47' W 122°36'212.2
2017-Nov-19 16:55N 37°48' W 122°33'411.0
2017-Nov-19 16:30N 37°49' W 122°28'3 5.3
2017-Nov-19 16:00N 37°49' W 122°25'0 0.0
2017-Nov-18 23:45N 37°49' W 122°25'0 0.0
2017-Nov-18 23:27N 37°49' W 122°25'0 0.0
2017-Nov-18 23:00N 37°49' W 122°25'3 5.3
2017-Nov-18 22:30N 37°49' W 122°28'2910.5
2017-Nov-18 19:46N 37°42' W 123°03'3 3.0
2017-Nov-18 18:52N 37°42' W 123°00'2110.6
2017-Nov-18 16:55N 37°48' W 122°35'511.8
2017-Nov-18 16:30N 37°49' W 122°29'3 5.8
2017-Nov-18 15:55N 37°49' W 122°25'0 0.0
2017-Nov-18 15:25N 37°49' W 122°25'0 0.0
2017-Nov-18 14:58N 37°49' W 122°25'0 0.0
2017-Nov-18 14:30N 37°49' W 122°25'0 0.0
2017-Nov-18 13:29N 37°49' W 122°25'0 0.0
2017-Nov-17 21:28N 37°49' W 122°25'6 1.2
2017-Nov-17 16:59N 37°48' W 122°31'4 7.8
2017-Nov-17 16:30N 37°49' W 122°27'2 4.1
2017-Nov-17 16:00N 37°49' W 122°25'0 0.0
2017-Nov-17 15:30N 37°49' W 122°25'  
2017-Nov-15 02:06N 37°49' W 122°25'0 0.1
2017-Nov-15 02:00N 37°49' W 122°25'0 0.4
2017-Nov-15 00:57N 37°49' W 122°25'3 6.1
2017-Nov-15 00:29N 37°49' W 122°29'3 1.8
2017-Nov-14 22:58N 37°49' W 122°25'3 5.9
2017-Nov-14 22:30N 37°49' W 122°28'3 1.8
2017-Nov-14 20:59N 37°49' W 122°25'0 0.0
2017-Nov-14 01:53N 37°49' W 122°25'0 0.3
2017-Nov-14 01:24N 37°49' W 122°24'5 1.6
2017-Nov-13 22:19N 37°49' W 122°31'412.2
2017-Nov-13 22:00N 37°49' W 122°26'1 0.0
2017-Nov-12 23:56N 37°49' W 122°25'0 0.0
2017-Nov-12 23:30N 37°49' W 122°25'5 0.8
2017-Nov-12 16:59N 37°48' W 122°31'510.9
2017-Nov-12 16:30N 37°49' W 122°24'0 0.2
2017-Nov-12 15:54N 37°49' W 122°25'0 0.0
2017-Nov-12 15:30N 37°49' W 122°25'0 0.0
2017-Nov-12 02:53N 37°49' W 122°25'0 0.3
2017-Nov-12 02:23N 37°49' W 122°24'614.0
2017-Nov-12 01:59N 37°48' W 122°32'3 1.8
2017-Nov-12 00:30N 37°48' W 122°35'713.3
2017-Nov-12 00:00N 37°49' W 122°27'1 1.8
2017-Nov-11 23:28N 37°48' W 122°26'1 2.5
2017-Nov-11 23:00N 37°49' W 122°24'2 3.2
2017-Nov-11 22:30N 37°49' W 122°26'29 9.9
2017-Nov-11 19:38N 37°42' W 123°01'1 5.8
2017-Nov-11 19:27N 37°42' W 123°00'20 9.1
2017-Nov-11 17:17N 37°47' W 122°36'410.4
2017-Nov-11 16:56N 37°48' W 122°32'3 7.2
2017-Nov-11 16:30N 37°49' W 122°28'3 5.2
2017-Nov-11 15:58N 37°49' W 122°25'0 0.0
2017-Nov-11 15:25N 37°49' W 122°25'0 0.0
2017-Nov-10 21:19N 37°49' W 122°25'0 0.0
2017-Nov-10 20:55N 37°49' W 122°25'1 2.2
2017-Nov-10 20:30N 37°49' W 122°26'6 1.7
2017-Nov-10 16:54N 37°47' W 122°33'4 9.8
2017-Nov-10 16:30N 37°49' W 122°29'3 5.9
2017-Nov-10 15:58N 37°49' W 122°25'0 0.0
2017-Nov-10 15:25N 37°49' W 122°25'  
Track history (hours):
 
Tides and Currents Weather Stations Pressure Air Temp Water Temp Dewpoint Dewpoint Depression Visibility Wind Speed Wind Dir Waves Ship Positions

Happy Days

Owner: nazar, joe d, san francisco, CA. More information available from US FCC via Universal Licensing System and Coast Guard Vessel Documentation Center.

Last reported at 2017-Nov-19 22:43 UTC. Time now 2017-Nov-24 00:24 UTC.
Position N 37°49' W 122°25'.

Length 13 m.

Type: Fishing. MMSI: 366918840.

Date/timePositionNaut miles runAvg speedWind from/ knotsBaromVisibWave heightAir tempDewpointWater temp
2017-Nov-19 22:43N 37°49' W 122°25'0 0.0
2017-Nov-19 22:28N 37°49' W 122°25'2 4.5
2017-Nov-19 22:00N 37°49' W 122°27'2412.5
2017-Nov-19 20:04N 37°43' W 122°57'113.3
2017-Nov-19 20:00N 37°43' W 122°58'2 2.2
2017-Nov-19 19:13N 37°42' W 122°60'0 0.8
2017-Nov-19 18:57N 37°42' W 123°00'1910.5
2017-Nov-19 17:06N 37°47' W 122°36'212.2
2017-Nov-19 16:55N 37°48' W 122°33'411.0
2017-Nov-19 16:30N 37°49' W 122°28'3 5.3
2017-Nov-19 16:00N 37°49' W 122°25'0 0.0
2017-Nov-18 23:45N 37°49' W 122°25'0 0.0
2017-Nov-18 23:27N 37°49' W 122°25'0 0.0
2017-Nov-18 23:00N 37°49' W 122°25'3 5.3
2017-Nov-18 22:30N 37°49' W 122°28'2910.5
2017-Nov-18 19:46N 37°42' W 123°03'3 3.0
2017-Nov-18 18:52N 37°42' W 123°00'2110.6
2017-Nov-18 16:55N 37°48' W 122°35'511.8
2017-Nov-18 16:30N 37°49' W 122°29'3 5.8
2017-Nov-18 15:55N 37°49' W 122°25'0 0.0
2017-Nov-18 15:25N 37°49' W 122°25'0 0.0
2017-Nov-18 14:58N 37°49' W 122°25'0 0.0
2017-Nov-18 14:30N 37°49' W 122°25'0 0.0
2017-Nov-18 13:29N 37°49' W 122°25'0 0.0
2017-Nov-17 21:28N 37°49' W 122°25'6 1.2
2017-Nov-17 16:59N 37°48' W 122°31'4 7.8
2017-Nov-17 16:30N 37°49' W 122°27'2 4.1
2017-Nov-17 16:00N 37°49' W 122°25'0 0.0
2017-Nov-17 15:30N 37°49' W 122°25'  
2017-Nov-15 02:06N 37°49' W 122°25'0 0.1
2017-Nov-15 02:00N 37°49' W 122°25'0 0.4
2017-Nov-15 00:57N 37°49' W 122°25'3 6.1
2017-Nov-15 00:29N 37°49' W 122°29'3 1.8
2017-Nov-14 22:58N 37°49' W 122°25'3 5.9
2017-Nov-14 22:30N 37°49' W 122°28'3 1.8
2017-Nov-14 20:59N 37°49' W 122°25'0 0.0
2017-Nov-14 01:53N 37°49' W 122°25'0 0.3
2017-Nov-14 01:24N 37°49' W 122°24'5 1.6
2017-Nov-13 22:19N 37°49' W 122°31'412.2
2017-Nov-13 22:00N 37°49' W 122°26'1 0.0
2017-Nov-12 23:56N 37°49' W 122°25'0 0.0
2017-Nov-12 23:30N 37°49' W 122°25'5 0.8
2017-Nov-12 16:59N 37°48' W 122°31'510.9
2017-Nov-12 16:30N 37°49' W 122°24'0 0.2
2017-Nov-12 15:54N 37°49' W 122°25'0 0.0
2017-Nov-12 15:30N 37°49' W 122°25'0 0.0
2017-Nov-12 02:53N 37°49' W 122°25'0 0.3
2017-Nov-12 02:23N 37°49' W 122°24'614.0
2017-Nov-12 01:59N 37°48' W 122°32'3 1.8
2017-Nov-12 00:30N 37°48' W 122°35'713.3
2017-Nov-12 00:00N 37°49' W 122°27'1 1.8
2017-Nov-11 23:28N 37°48' W 122°26'1 2.5
2017-Nov-11 23:00N 37°49' W 122°24'2 3.2
2017-Nov-11 22:30N 37°49' W 122°26'29 9.9
2017-Nov-11 19:38N 37°42' W 123°01'1 5.8
2017-Nov-11 19:27N 37°42' W 123°00'20 9.1
2017-Nov-11 17:17N 37°47' W 122°36'410.4
2017-Nov-11 16:56N 37°48' W 122°32'3 7.2
2017-Nov-11 16:30N 37°49' W 122°28'3 5.2
2017-Nov-11 15:58N 37°49' W 122°25'0 0.0
2017-Nov-11 15:25N 37°49' W 122°25'0 0.0
2017-Nov-10 21:19N 37°49' W 122°25'0 0.0
2017-Nov-10 20:55N 37°49' W 122°25'1 2.2
2017-Nov-10 20:30N 37°49' W 122°26'6 1.7
2017-Nov-10 16:54N 37°47' W 122°33'4 9.8
2017-Nov-10 16:30N 37°49' W 122°29'3 5.9
2017-Nov-10 15:58N 37°49' W 122°25'0 0.0
2017-Nov-10 15:25N 37°49' W 122°25'  

Dump ship's entire track history